Time;durP1;ratioP1;P1;durP2;ratioP2;P2;SDS_P1;SDS_P2;PMS_P1;PMS_P2;Temp;Humidity;BMP_temperature;BMP_pressure;BME280_temperature;BME280_humidity;BME280_pressure;Samples;Min_cycle;Max_cycle;Signal;HPM_P1;HPM_P2
2023/10/21 00:00:32;;;;;;;17.30;14.70;;;;;;;16.42;70.38;99202.24;105346;1260;61400;-53
2023/10/21 00:03:00;;;;;;;18.30;12.80;;;;;;;16.40;70.02;99204.48;104831;1259;62646;-53
2023/10/21 00:05:27;;;;;;;17.10;13.00;;;;;;;16.40;69.65;99200.02;104888;1263;59870;-53
2023/10/21 00:07:55;;;;;;;19.10;13.30;;;;;;;16.38;69.52;99195.06;104827;1265;60310;-54
2023/10/21 00:10:23;;;;;;;20.60;13.20;;;;;;;16.35;69.38;99200.38;104797;1259;64214;-54
2023/10/21 00:12:50;;;;;;;17.00;13.10;;;;;;;16.36;69.50;99203.13;105413;1263;60108;-54
2023/10/21 00:15:18;;;;;;;17.50;13.50;;;;;;;16.39;69.80;99204.67;104831;1259;62487;-53
2023/10/21 00:17:45;;;;;;;16.30;13.20;;;;;;;16.44;69.88;99200.09;104853;1262;59640;-54
2023/10/21 00:20:14;;;;;;;19.30;12.80;;;;;;;16.44;69.78;99197.04;104851;1264;59705;-53
2023/10/21 00:22:42;;;;;;;20.90;11.70;;;;;;;16.41;69.28;99192.43;105237;1261;64119;-54
2023/10/21 00:25:10;;;;;;;19.50;11.90;;;;;;;16.39;69.22;99190.45;105209;1262;61424;-53
2023/10/21 00:27:38;;;;;;;15.50;11.70;;;;;;;16.41;69.23;99187.68;105259;1264;63745;-52
2023/10/21 00:30:06;;;;;;;19.30;13.20;;;;;;;16.47;69.35;99188.53;105349;1265;59755;-53
2023/10/21 00:32:34;;;;;;;16.10;12.40;;;;;;;16.46;69.21;99191.09;105432;1261;59630;-53
2023/10/21 00:35:03;;;;;;;16.40;13.10;;;;;;;16.47;69.31;99190.64;104840;1263;64158;-53
2023/10/21 00:37:31;;;;;;;15.80;11.90;;;;;;;16.47;69.14;99191.91;104830;1267;60184;-53
2023/10/21 00:39:58;;;;;;;14.60;11.60;;;;;;;16.47;68.93;99194.20;104830;1262;71389;-54
2023/10/21 00:42:26;;;;;;;15.40;12.60;;;;;;;16.47;68.77;99194.40;104581;1262;60731;-56
2023/10/21 00:44:54;;;;;;;17.00;12.10;;;;;;;16.46;68.80;99191.63;104960;1268;59706;-53
2023/10/21 00:47:22;;;;;;;17.50;12.90;;;;;;;16.44;68.70;99189.04;104964;1263;64122;-52
2023/10/21 00:49:49;;;;;;;16.10;12.60;;;;;;;16.40;68.62;99185.85;104813;1265;69196;-53
2023/10/21 00:52:17;;;;;;;15.50;12.80;;;;;;;16.35;68.77;99186.63;105027;1261;63807;-52
2023/10/21 00:54:45;;;;;;;15.10;12.70;;;;;;;16.33;68.68;99187.02;104520;1262;59717;-53
2023/10/21 00:57:12;;;;;;;18.80;12.50;;;;;;;16.34;68.79;99185.14;104803;1262;59594;-54
2023/10/21 00:59:41;;;;;;;16.00;12.50;;;;;;;16.37;68.93;99186.27;104832;1263;64149;-53
2023/10/21 01:02:11;;;;;;;19.60;13.60;;;;;;;16.42;69.17;99183.66;105417;1259;61790;-53
2023/10/21 01:04:40;;;;;;;18.20;14.00;;;;;;;16.49;69.20;99187.61;105297;1259;63824;-53
2023/10/21 01:07:16;;;;;;;17.10;14.10;;;;;;;16.52;69.13;99186.45;105409;1259;59745;-52
2023/10/21 01:09:44;;;;;;;18.20;13.40;;;;;;;16.50;68.82;99182.64;105051;1262;59756;-53
2023/10/21 01:12:11;;;;;;;16.70;13.10;;;;;;;16.48;68.62;99175.35;104962;1259;62879;-53
2023/10/21 01:14:39;;;;;;;17.20;12.60;;;;;;;16.46;68.35;99175.89;104910;1259;63934;-51
2023/10/21 01:17:08;;;;;;;18.60;13.30;;;;;;;16.44;68.47;99176.98;105361;1259;63666;-53
2023/10/21 01:19:35;;;;;;;15.90;12.20;;;;;;;16.42;68.59;99181.66;104812;1262;59737;-53
2023/10/21 01:22:03;;;;;;;16.40;12.70;;;;;;;16.37;68.60;99187.26;104891;1264;59676;-53
2023/10/21 01:24:31;;;;;;;20.80;13.10;;;;;;;16.33;68.94;99186.89;105735;1262;64082;-53
2023/10/21 01:26:59;;;;;;;14.60;11.20;;;;;;;16.35;68.82;99181.48;104903;1265;60300;-52
2023/10/21 01:29:26;;;;;;;15.90;12.30;;;;;;;16.37;68.83;99181.79;104930;1260;62529;-52
2023/10/21 01:31:55;;;;;;;17.60;12.10;;;;;;;16.40;68.69;99182.86;105123;1262;60633;-52
2023/10/21 01:34:22;;;;;;;23.00;12.60;;;;;;;16.39;68.54;99184.73;105041;1259;60485;-52
2023/10/21 01:36:50;;;;;;;16.70;13.50;;;;;;;16.35;68.70;99189.06;105107;1259;63648;-52
2023/10/21 01:39:18;;;;;;;20.50;14.10;;;;;;;16.35;69.05;99186.20;105138;1263;60444;-52
2023/10/21 01:41:46;;;;;;;18.70;13.40;;;;;;;16.37;69.02;99187.45;105337;1262;71863;-53
2023/10/21 01:44:14;;;;;;;18.90;12.40;;;;;;;16.37;68.87;99189.77;104888;1264;60469;-52
2023/10/21 01:46:42;;;;;;;16.10;12.30;;;;;;;16.37;68.75;99191.13;105042;1260;60658;-53
2023/10/21 01:49:09;;;;;;;16.70;12.30;;;;;;;16.41;69.13;99191.54;104939;1262;64880;-52
2023/10/21 01:51:37;;;;;;;20.70;13.30;;;;;;;16.44;68.83;99195.04;104887;1260;61314;-52
2023/10/21 01:54:05;;;;;;;19.50;14.40;;;;;;;16.42;68.85;99191.13;105512;1258;62631;-51
2023/10/21 01:56:33;;;;;;;26.20;14.10;;;;;;;16.41;69.09;99194.79;104992;1260;60563;-51
2023/10/21 01:59:01;;;;;;;16.90;13.50;;;;;;;16.40;69.07;99203.05;105598;1262;60447;-51
2023/10/21 02:01:29;;;;;;;19.50;12.90;;;;;;;16.41;68.93;99207.63;105062;1259;64913;-53
2023/10/21 02:03:57;;;;;;;18.30;12.60;;;;;;;16.39;68.67;99212.52;105016;1264;61352;-51
2023/10/21 02:06:24;;;;;;;21.10;13.40;;;;;;;16.40;68.95;99221.83;105089;1262;62628;-51
2023/10/21 02:08:55;;;;;;;23.70;14.40;;;;;;;16.39;69.21;99216.93;105014;1260;60642;-52
2023/10/21 02:11:26;;;;;;;21.30;14.30;;;;;;;16.38;69.21;99214.13;105124;1260;61587;-52
2023/10/21 02:13:54;;;;;;;20.60;13.50;;;;;;;16.32;69.35;99217.46;105062;1264;65378;-51
2023/10/21 02:16:22;;;;;;;21.50;13.00;;;;;;;16.25;69.30;99211.10;105152;1262;69545;-55
2023/10/21 02:18:49;;;;;;;19.70;13.40;;;;;;;16.23;69.42;99206.55;104860;1265;62608;-55
2023/10/21 02:21:17;;;;;;;17.30;13.20;;;;;;;16.23;69.33;99208.96;105189;1260;60388;-56
2023/10/21 02:23:45;;;;;;;13.90;12.00;;;;;;;16.24;69.35;99210.45;105194;1262;60468;-55
2023/10/21 02:26:13;;;;;;;16.50;12.50;;;;;;;16.24;69.52;99210.89;104924;1265;64930;-55
2023/10/21 02:28:40;;;;;;;18.60;14.40;;;;;;;16.22;69.40;99207.08;104918;1260;61807;-53
2023/10/21 02:31:09;;;;;;;20.00;13.70;;;;;;;16.15;69.27;99211.41;104823;1265;62561;-55
2023/10/21 02:33:36;;;;;;;18.20;12.80;;;;;;;16.10;69.44;99212.79;105535;1262;60559;-55
2023/10/21 02:36:04;;;;;;;19.70;13.30;;;;;;;16.13;69.62;99214.58;104965;1266;60368;-55
2023/10/21 02:38:35;;;;;;;23.20;14.20;;;;;;;16.17;69.64;99221.80;104873;1262;65397;-60
2023/10/21 02:41:05;;;;;;;19.90;12.90;;;;;;;16.20;69.75;99229.39;105611;1265;61608;-56
2023/10/21 02:43:33;;;;;;;20.80;12.90;;;;;;;16.23;69.67;99233.71;104902;1261;63809;-56
2023/10/21 02:46:08;;;;;;;26.40;14.50;;;;;;;16.25;69.73;99228.58;105028;1264;60467;-56
2023/10/21 02:48:36;;;;;;;26.20;14.80;;;;;;;16.24;69.57;99228.36;105685;1262;60516;-55
2023/10/21 02:51:17;;;;;;;17.30;13.40;;;;;;;16.23;69.50;99227.25;105440;1260;73813;-56
2023/10/21 02:53:45;;;;;;;17.60;13.30;;;;;;;16.21;69.54;99226.98;105113;1265;61371;-56
2023/10/21 02:56:13;;;;;;;18.70;14.30;;;;;;;16.18;69.58;99232.63;104918;1263;63778;-55
2023/10/21 02:58:40;;;;;;;20.70;13.80;;;;;;;16.16;69.59;99233.15;105999;1261;60614;-56
2023/10/21 03:01:15;;;;;;;19.90;13.60;;;;;;;16.17;69.65;99235.19;104888;1259;60409;-55
2023/10/21 03:03:44;;;;;;;21.50;14.70;;;;;;;16.18;69.66;99234.21;105428;1259;63709;-55
2023/10/21 03:06:12;;;;;;;20.90;15.40;;;;;;;16.16;69.78;99241.72;105114;1263;60281;-56
2023/10/21 03:08:40;;;;;;;18.40;14.90;;;;;;;16.10;69.74;99256.15;105217;1260;62439;-53
2023/10/21 03:11:08;;;;;;;18.20;14.40;;;;;;;16.09;69.89;99262.70;105327;1264;60570;-55
2023/10/21 03:13:37;;;;;;;21.30;14.40;;;;;;;16.10;69.69;99263.48;105367;1263;60463;-55
2023/10/21 03:16:05;;;;;;;19.80;14.30;;;;;;;16.10;69.68;99268.59;105453;1264;63794;-55
2023/10/21 03:18:34;;;;;;;21.70;15.10;;;;;;;16.10;69.83;99276.91;105656;1260;61922;-52
2023/10/21 03:21:03;;;;;;;19.50;16.10;;;;;;;16.09;69.86;99275.44;105502;1265;62534;-52
2023/10/21 03:23:31;;;;;;;23.90;15.90;;;;;;;16.07;69.93;99276.92;106277;1259;60547;-54
2023/10/21 03:26:03;;;;;;;20.60;16.40;;;;;;;16.04;70.02;99277.16;105675;1260;60378;-54
2023/10/21 03:28:31;;;;;;;20.40;15.90;;;;;;;16.01;70.08;99279.06;105467;1260;63697;-53
2023/10/21 03:30:59;;;;;;;19.60;15.40;;;;;;;16.00;70.12;99285.94;105812;1262;61839;-55
2023/10/21 03:33:28;;;;;;;21.00;16.10;;;;;;;16.01;70.26;99287.77;105003;1263;63706;-54
2023/10/21 03:36:00;;;;;;;21.60;15.90;;;;;;;16.02;70.28;99282.33;105014;1259;60597;-54
2023/10/21 03:38:28;;;;;;;20.70;15.70;;;;;;;16.03;70.47;99285.73;108816;1259;58497;-55
2023/10/21 03:40:59;;;;;;;23.20;17.90;;;;;;;16.02;70.55;99292.37;108779;1259;63674;-54
2023/10/21 03:43:26;;;;;;;20.50;15.80;;;;;;;16.02;70.46;99300.94;108826;1259;61370;-54
2023/10/21 03:45:54;;;;;;;20.00;14.00;;;;;;;16.04;70.42;99299.91;108832;1259;62451;-54
2023/10/21 03:48:23;;;;;;;19.10;15.00;;;;;;;16.09;70.33;99295.73;108771;1259;58655;-54
2023/10/21 03:50:51;;;;;;;20.90;15.70;;;;;;;16.15;70.30;99295.92;108267;1260;58422;-53
2023/10/21 03:53:20;;;;;;;21.50;16.40;;;;;;;16.20;70.16;99300.11;105011;1259;67079;-52
2023/10/21 03:55:47;;;;;;;20.50;15.80;;;;;;;16.22;69.98;99300.28;104959;1259;61332;-55
2023/10/21 03:58:15;;;;;;;21.20;16.20;;;;;;;16.20;70.05;99292.14;104956;1260;62455;-48
2023/10/21 04:00:43;;;;;;;22.30;15.30;;;;;;;16.16;69.85;99291.64;104837;1263;60569;-47
2023/10/21 04:03:12;;;;;;;19.00;15.80;;;;;;;16.14;69.63;99290.64;105111;1259;60328;-48
2023/10/21 04:05:46;;;;;;;21.60;16.30;;;;;;;16.10;69.58;99287.61;105337;1265;65147;-48
2023/10/21 04:08:15;;;;;;;21.60;15.20;;;;;;;16.05;69.43;99285.14;104811;1266;60542;-49
2023/10/21 04:10:42;;;;;;;20.20;15.60;;;;;;;15.97;69.48;99290.27;104876;1259;63765;-49
2023/10/21 04:13:10;;;;;;;20.70;17.40;;;;;;;15.90;69.90;99300.01;104715;1260;60545;-45
2023/10/21 04:15:37;;;;;;;25.70;17.00;;;;;;;15.85;70.14;99303.00;104861;1264;60584;-46
2023/10/21 04:18:08;;;;;;;22.10;16.50;;;;;;;15.79;70.35;99300.73;105329;1259;65046;-47
2023/10/21 04:20:36;;;;;;;19.00;15.90;;;;;;;15.76;70.30;99302.35;105377;1263;61548;-50
2023/10/21 04:23:04;;;;;;;20.60;15.90;;;;;;;15.74;70.46;99299.55;105501;1258;62627;-53
2023/10/21 04:25:32;;;;;;;19.80;16.20;;;;;;;15.71;70.48;99299.80;104873;1259;60573;-55
2023/10/21 04:28:00;;;;;;;19.00;14.30;;;;;;;15.71;70.76;99310.73;105666;1259;60493;-54
2023/10/21 04:30:28;;;;;;;20.30;15.30;;;;;;;15.74;70.79;99317.05;105855;1263;64923;-56
2023/10/21 04:32:56;;;;;;;22.50;16.20;;;;;;;15.79;71.14;99320.60;104919;1265;69160;-54
2023/10/21 04:35:24;;;;;;;29.50;19.90;;;;;;;15.81;71.15;99324.27;104912;1260;64301;-58
2023/10/21 04:37:52;;;;;;;22.60;16.00;;;;;;;15.83;71.04;99324.89;104768;1266;60348;-56
2023/10/21 04:40:19;;;;;;;20.30;15.80;;;;;;;15.88;70.97;99322.05;104999;1260;60480;-58
2023/10/21 04:42:47;;;;;;;25.50;16.40;;;;;;;15.91;70.99;99323.02;105120;1262;65128;-58
2023/10/21 04:45:15;;;;;;;20.20;15.30;;;;;;;15.96;71.11;99326.30;104911;1258;61416;-59
2023/10/21 04:47:43;;;;;;;20.90;15.00;;;;;;;16.03;70.87;99330.66;104998;1264;62547;-58
2023/10/21 04:50:12;;;;;;;19.70;16.40;;;;;;;16.09;70.71;99333.65;105498;1262;60489;-57
2023/10/21 04:52:42;;;;;;;24.10;17.50;;;;;;;16.12;70.70;99339.26;105493;1258;62854;-59
2023/10/21 04:55:10;;;;;;;24.10;17.30;;;;;;;16.14;70.71;99340.05;104824;1265;63963;-62
2023/10/21 04:57:38;;;;;;;20.90;16.50;;;;;;;16.15;70.28;99345.58;105179;1262;61643;-59
2023/10/21 05:00:08;;;;;;;25.70;15.90;;;;;;;16.18;69.93;99351.29;104991;1261;64467;-57
2023/10/21 05:02:36;;;;;;;25.70;16.20;;;;;;;16.20;69.86;99354.77;108699;1262;58487;-58
2023/10/21 05:05:04;;;;;;;21.90;15.80;;;;;;;16.21;69.65;99361.98;108752;1262;58446;-60
2023/10/21 05:07:31;;;;;;;25.30;17.40;;;;;;;16.18;69.45;99369.08;108710;1261;64944;-55
2023/10/21 05:09:59;;;;;;;20.20;16.30;;;;;;;16.10;69.49;99372.05;108793;1260;60431;-61
2023/10/21 05:12:27;;;;;;;22.80;17.30;;;;;;;16.03;69.86;99378.76;108667;1259;63756;-58
2023/10/21 05:14:54;;;;;;;26.90;17.70;;;;;;;15.99;70.19;99385.72;107189;1264;58291;-49
2023/10/21 05:17:22;;;;;;;23.50;17.00;;;;;;;16.03;70.14;99386.71;108664;1259;58516;-49
2023/10/21 05:19:49;;;;;;;25.50;16.70;;;;;;;16.05;69.92;99394.29;108691;1261;63752;-51
2023/10/21 05:22:17;;;;;;;22.70;15.70;;;;;;;16.04;69.86;99400.08;108669;1263;60107;-53
2023/10/21 05:24:44;;;;;;;26.50;17.00;;;;;;;16.06;70.11;99405.48;108617;1259;63706;-53
2023/10/21 05:27:12;;;;;;;22.10;16.20;;;;;;;16.09;70.60;99409.05;108587;1260;58667;-53
2023/10/21 05:29:39;;;;;;;22.60;17.20;;;;;;;16.11;70.61;99413.90;108669;1259;58321;-53
2023/10/21 05:32:07;;;;;;;23.90;17.50;;;;;;;16.10;70.60;99418.62;108746;1263;65396;-49
2023/10/21 05:34:34;;;;;;;26.10;16.10;;;;;;;16.11;70.39;99421.86;108677;1260;62504;-51
2023/10/21 05:37:03;;;;;;;21.00;16.00;;;;;;;16.12;70.41;99425.80;108751;1260;62461;-49
2023/10/21 05:39:30;;;;;;;19.10;15.60;;;;;;;16.13;70.24;99426.21;108741;1260;58529;-49
2023/10/21 05:42:01;;;;;;;20.40;15.00;;;;;;;16.13;70.23;99424.14;108639;1259;58229;-48
2023/10/21 05:44:30;;;;;;;22.90;15.40;;;;;;;16.08;70.17;99426.06;108676;1264;64968;-48
2023/10/21 05:47:22;;;;;;;19.40;13.80;;;;;;;16.00;70.33;99438.23;108729;1259;73903;-53
2023/10/21 05:49:49;;;;;;;18.80;14.00;;;;;;;15.93;70.33;99450.00;108628;1261;63763;-53
2023/10/21 05:52:17;;;;;;;16.10;12.50;;;;;;;15.91;70.42;99454.27;108688;1263;58134;-50
2023/10/21 05:54:44;;;;;;;17.60;13.50;;;;;;;15.90;70.26;99455.27;108706;1260;58311;-52
2023/10/21 05:57:12;;;;;;;17.10;11.80;;;;;;;15.88;70.33;99465.60;107499;1264;64942;-54
2023/10/21 05:59:40;;;;;;;15.80;12.40;;;;;;;15.86;70.34;99471.52;104975;1260;60471;-59
2023/10/21 06:02:09;;;;;;;18.70;12.40;;;;;;;15.82;70.48;99470.17;104695;1263;63753;-58
2023/10/21 06:04:36;;;;;;;13.20;10.60;;;;;;;15.76;70.48;99475.94;105235;1263;60580;-58
2023/10/21 06:07:05;;;;;;;15.30;10.40;;;;;;;15.69;70.55;99476.94;105194;1266;60471;-60
2023/10/21 06:09:33;;;;;;;12.00;8.80;;;;;;;15.64;70.26;99480.52;105378;1265;65069;-60
2023/10/21 06:12:00;;;;;;;11.90;8.30;;;;;;;15.60;70.33;99483.53;104816;1267;61771;-59
2023/10/21 06:14:28;;;;;;;12.50;9.50;;;;;;;15.56;70.51;99493.88;104811;1264;62530;-61
2023/10/21 06:16:56;;;;;;;12.70;9.40;;;;;;;15.53;70.47;99499.90;105467;1266;60557;-59
2023/10/21 06:19:24;;;;;;;11.40;8.30;;;;;;;15.48;70.49;99507.44;105260;1264;60426;-60
2023/10/21 06:21:54;;;;;;;12.00;8.50;;;;;;;15.47;70.66;99513.86;104890;1265;64959;-57
2023/10/21 06:24:22;;;;;;;9.90;7.20;;;;;;;15.45;70.34;99511.35;104793;1267;60390;-59
2023/10/21 06:26:50;;;;;;;9.00;6.40;;;;;;;15.41;70.23;99514.63;104627;1264;63691;-58
2023/10/21 06:29:18;;;;;;;11.30;7.50;;;;;;;15.37;70.19;99512.43;108586;1260;58472;-60
2023/10/21 06:31:45;;;;;;;11.40;7.50;;;;;;;15.31;70.19;99508.85;108712;1260;58437;-63
2023/10/21 06:34:13;;;;;;;13.50;8.30;;;;;;;15.27;70.28;99517.15;107543;1266;64935;-60
2023/10/21 06:36:40;;;;;;;10.30;7.10;;;;;;;15.23;70.18;99528.21;108740;1261;61329;-60
2023/10/21 06:39:08;;;;;;;11.40;7.10;;;;;;;15.19;70.15;99531.23;108744;1261;63739;-59
2023/10/21 06:41:35;;;;;;;9.90;7.30;;;;;;;15.19;69.95;99542.08;108684;1260;59102;-60
2023/10/21 06:44:04;;;;;;;11.90;8.40;;;;;;;15.17;69.95;99553.59;108501;1260;58293;-59
2023/10/21 06:46:32;;;;;;;12.40;6.20;;;;;;;15.12;70.00;99556.98;108674;1259;64941;-59
2023/10/21 06:48:59;;;;;;;12.20;7.50;;;;;;;15.06;70.21;99562.08;108717;1261;61033;-58
2023/10/21 06:51:27;;;;;;;12.00;7.80;;;;;;;15.01;70.29;99565.70;108745;1260;63794;-57
2023/10/21 06:53:55;;;;;;;11.70;6.80;;;;;;;15.05;70.24;99563.23;108677;1260;58428;-57
2023/10/21 06:56:23;;;;;;;10.60;6.10;;;;;;;15.13;70.00;99558.84;106338;1264;60500;-60
2023/10/21 06:58:52;;;;;;;9.80;6.60;;;;;;;15.14;69.86;99561.52;104650;1267;64941;-59
2023/10/21 07:01:20;;;;;;;9.10;6.00;;;;;;;15.12;70.00;99566.02;104853;1260;61857;-59
2023/10/21 07:03:48;;;;;;;11.00;6.30;;;;;;;15.07;69.73;99568.09;104848;1264;62699;-59
2023/10/21 07:06:16;;;;;;;11.90;6.90;;;;;;;15.00;69.70;99564.28;105658;1261;61199;-60
2023/10/21 07:08:44;;;;;;;9.80;6.50;;;;;;;14.98;69.74;99559.05;105123;1265;60655;-59
2023/10/21 07:11:12;;;;;;;9.50;6.00;;;;;;;15.01;69.51;99567.42;104736;1261;63752;-59
2023/10/21 07:13:43;;;;;;;10.20;7.00;;;;;;;14.99;69.40;99580.02;104672;1266;61378;-59
2023/10/21 07:16:11;;;;;;;10.90;7.40;;;;;;;14.95;69.62;99591.03;104560;1266;64708;-60
2023/10/21 07:18:39;;;;;;;11.70;8.00;;;;;;;14.92;69.85;99591.03;105075;1266;60489;-61
2023/10/21 07:21:08;;;;;;;10.50;6.00;;;;;;;14.89;70.06;99591.00;105409;1260;60612;-60
2023/10/21 07:23:35;;;;;;;8.70;5.60;;;;;;;14.91;69.96;99595.17;105061;1261;65398;-60
2023/10/21 07:26:03;;;;;;;14.90;7.20;;;;;;;14.97;69.78;99593.27;108760;1260;61823;-60
2023/10/21 07:28:31;;;;;;;12.10;6.40;;;;;;;15.05;69.70;99583.87;108755;1260;63684;-60
2023/10/21 07:31:00;;;;;;;11.20;6.40;;;;;;;15.14;69.54;99582.05;108760;1260;58437;-61
2023/10/21 07:33:28;;;;;;;12.10;6.60;;;;;;;15.19;69.33;99585.34;108820;1260;58332;-61
2023/10/21 07:35:55;;;;;;;12.40;6.60;;;;;;;15.19;68.95;99595.01;108749;1261;65112;-60
2023/10/21 07:38:23;;;;;;;10.90;5.70;;;;;;;15.17;68.94;99598.77;108765;1263;60294;-63
2023/10/21 07:40:51;;;;;;;9.90;6.60;;;;;;;15.22;68.78;99598.20;107910;1264;62445;-56
2023/10/21 07:43:20;;;;;;;11.30;6.00;;;;;;;15.26;68.36;99599.95;104597;1270;60610;-53
2023/10/21 07:45:48;;;;;;;13.40;6.30;;;;;;;15.24;68.20;99607.91;108824;1258;58265;-52
2023/10/21 07:48:16;;;;;;;11.20;5.40;;;;;;;15.19;68.02;99609.21;108782;1259;63721;-52
2023/10/21 07:50:44;;;;;;;12.90;7.00;;;;;;;15.12;68.10;99616.70;108719;1259;61450;-50
2023/10/21 07:53:11;;;;;;;10.40;6.40;;;;;;;15.04;68.34;99624.08;108826;1259;62564;-51
2023/10/21 07:55:38;;;;;;;8.60;5.60;;;;;;;15.00;68.06;99627.55;108760;1260;58609;-52
2023/10/21 07:58:08;;;;;;;10.50;6.10;;;;;;;14.91;68.10;99633.42;108481;1260;58681;-52
2023/10/21 08:00:36;;;;;;;11.70;6.10;;;;;;;14.78;68.86;99641.26;105390;1261;63723;-67
2023/10/21 08:03:05;;;;;;;11.80;6.10;;;;;;;14.80;68.92;99646.48;105286;1260;60416;-59
2023/10/21 08:05:32;;;;;;;10.90;5.80;;;;;;;14.81;68.92;99649.36;105331;1265;64313;-58
2023/10/21 08:08:00;;;;;;;9.40;5.50;;;;;;;14.81;68.74;99661.41;105394;1261;60540;-60
2023/10/21 08:10:28;;;;;;;8.40;5.10;;;;;;;14.82;68.66;99670.88;104757;1265;60477;-60
2023/10/21 08:12:55;;;;;;;10.70;6.10;;;;;;;14.80;68.62;99674.55;104743;1263;65029;-62
2023/10/21 08:15:24;;;;;;;9.40;5.90;;;;;;;14.77;68.41;99682.74;104943;1264;61418;-59
2023/10/21 08:17:53;;;;;;;12.10;5.70;;;;;;;14.65;68.23;99692.81;104831;1261;62461;-60
2023/10/21 08:20:21;;;;;;;13.00;6.30;;;;;;;14.53;68.35;99698.07;104818;1259;60940;-60
2023/10/21 08:22:48;;;;;;;11.20;6.20;;;;;;;14.49;68.72;99702.06;104879;1261;60431;-60
2023/10/21 08:25:16;;;;;;;13.20;6.10;;;;;;;14.46;68.96;99707.73;104872;1260;65321;-60
2023/10/21 08:27:43;;;;;;;8.70;5.40;;;;;;;14.41;69.05;99719.70;104873;1261;61410;-59
2023/10/21 08:30:12;;;;;;;10.70;6.00;;;;;;;14.35;69.22;99724.43;104940;1264;62756;-61
2023/10/21 08:32:40;;;;;;;9.50;5.70;;;;;;;14.31;69.47;99723.55;105091;1264;60625;-60
2023/10/21 08:35:08;;;;;;;10.20;5.50;;;;;;;14.34;69.69;99720.48;105118;1259;60900;-60
2023/10/21 08:37:37;;;;;;;9.80;5.50;;;;;;;14.38;69.42;99717.21;104967;1260;65012;-60
2023/10/21 08:40:10;;;;;;;12.40;5.90;;;;;;;14.39;69.41;99708.25;104948;1264;60883;-61
2023/10/21 08:42:38;;;;;;;10.50;5.70;;;;;;;14.43;69.67;99701.48;105106;1260;64409;-60
2023/10/21 08:45:26;;;;;;;10.50;6.10;;;;;;;14.50;69.88;99704.25;104845;1261;60517;-59
2023/10/21 08:47:54;;;;;;;9.40;5.90;;;;;;;14.57;69.65;99708.67;104868;1265;60384;-58
2023/10/21 08:50:24;;;;;;;10.10;5.20;;;;;;;14.61;69.18;99708.20;104885;1261;65011;-62
2023/10/21 08:52:54;;;;;;;12.60;6.50;;;;;;;14.59;69.16;99712.09;106197;1261;61458;-60
2023/10/21 08:55:22;;;;;;;11.10;7.10;;;;;;;14.65;69.01;99716.83;105736;1260;63743;-52
2023/10/21 08:57:50;;;;;;;9.50;5.90;;;;;;;14.68;68.64;99715.61;104827;1265;60663;-51
2023/10/21 09:00:18;;;;;;;10.90;6.50;;;;;;;14.60;68.38;99719.60;104927;1261;60464;-50
2023/10/21 09:02:46;;;;;;;9.50;5.50;;;;;;;14.48;68.57;99724.38;104966;1260;64905;-52
2023/10/21 09:05:14;;;;;;;10.10;5.60;;;;;;;14.42;68.60;99730.49;104917;1261;61830;-53
2023/10/21 09:07:46;;;;;;;10.80;5.90;;;;;;;14.42;68.88;99734.10;105296;1261;62468;-54
2023/10/21 09:10:14;;;;;;;9.90;6.40;;;;;;;14.44;68.99;99731.54;105025;1261;60566;-51
2023/10/21 09:12:42;;;;;;;11.40;6.30;;;;;;;14.43;69.09;99728.70;105214;1260;60945;-53
2023/10/21 09:15:09;;;;;;;10.00;6.30;;;;;;;14.38;69.04;99729.89;104827;1260;64932;-52
2023/10/21 09:17:44;;;;;;;9.80;6.20;;;;;;;14.32;69.25;99736.86;105075;1260;61341;-54
2023/10/21 09:20:16;;;;;;;11.50;6.40;;;;;;;14.32;69.26;99738.48;104929;1261;63806;-53
2023/10/21 09:22:45;;;;;;;10.20;6.40;;;;;;;14.36;69.41;99730.67;104877;1267;60827;-54
2023/10/21 09:25:16;;;;;;;9.60;6.20;;;;;;;14.40;69.36;99735.55;106674;1260;60830;-50
2023/10/21 09:27:44;;;;;;;10.90;5.80;;;;;;;14.42;69.33;99744.81;104923;1260;64894;-51
2023/10/21 09:30:19;;;;;;;11.80;6.90;;;;;;;14.39;69.13;99748.98;105069;1261;61513;-50
2023/10/21 09:32:47;;;;;;;9.80;5.80;;;;;;;14.34;69.19;99757.84;104949;1264;72672;-52
2023/10/21 09:35:24;;;;;;;12.70;7.30;;;;;;;14.35;69.21;99759.13;104458;1266;582967;-55
2023/10/21 09:39:57;;;;;;;12.40;7.60;;;;;;;14.23;69.84;99756.36;102268;1294;600691;-54
2023/10/21 09:42:25;;;;;;;11.00;7.20;;;;;;;14.46;69.08;99757.60;104840;1265;59515;-55
2023/10/21 09:44:55;;;;;;;12.90;7.40;;;;;;;14.48;68.87;99754.59;105646;1260;59316;-56
2023/10/21 09:47:22;;;;;;;13.10;6.70;;;;;;;14.47;68.83;99755.61;104847;1261;63288;-54
2023/10/21 09:49:50;;;;;;;9.90;6.70;;;;;;;14.47;68.74;99756.08;105357;1262;63524;-53
2023/10/21 09:52:20;;;;;;;10.80;6.10;;;;;;;14.48;68.60;99758.33;104420;1267;322116;-55
2023/10/21 09:54:52;;;;;;;11.00;6.90;;;;;;;14.47;68.77;99762.30;105202;1260;59214;-55
2023/10/21 09:57:20;;;;;;;12.40;7.30;;;;;;;14.45;68.70;99766.79;105045;1263;59274;-54
2023/10/21 09:59:48;;;;;;;12.80;8.90;;;;;;;14.44;68.69;99768.05;105046;1258;71120;-54
2023/10/21 10:02:16;;;;;;;11.70;7.60;;;;;;;14.39;68.67;99774.71;105070;1260;60446;-55
2023/10/21 10:04:44;;;;;;;10.10;7.10;;;;;;;14.38;68.57;99782.70;105216;1262;62426;-56
2023/10/21 10:07:12;;;;;;;10.30;7.10;;;;;;;14.38;68.54;99793.80;104836;1257;59970;-55
2023/10/21 10:10:00;;;;;;;12.10;6.90;;;;;;;14.37;68.55;99799.86;105707;1260;60400;-53
2023/10/21 10:12:48;;;;;;;11.40;8.20;;;;;;;14.38;68.79;99806.98;105473;1257;62833;-55
2023/10/21 10:15:37;;;;;;;14.00;8.70;;;;;;;14.39;68.76;99809.27;108980;1256;61785;-50
2023/10/21 10:18:10;;;;;;;11.00;7.90;;;;;;;14.37;68.70;99811.87;108925;1257;63797;-53
2023/10/21 10:20:52;;;;;;;11.30;7.40;;;;;;;14.37;68.43;99810.61;107880;1259;59740;-54
2023/10/21 10:23:20;;;;;;;11.90;8.00;;;;;;;14.39;68.34;99820.02;105306;1256;59555;-53
2023/10/21 10:25:49;;;;;;;13.80;7.80;;;;;;;14.37;68.31;99824.97;105278;1260;64083;-54
2023/10/21 10:28:19;;;;;;;12.90;8.80;;;;;;;14.31;68.61;99828.85;104982;1258;61396;-54
2023/10/21 10:30:50;;;;;;;12.80;8.60;;;;;;;14.29;68.71;99831.40;105025;1256;64079;-53
2023/10/21 10:33:25;;;;;;;11.60;8.00;;;;;;;14.26;68.83;99838.70;105103;1256;59781;-55
2023/10/21 10:35:54;;;;;;;14.40;8.70;;;;;;;14.27;68.66;99847.33;106603;1256;60096;-54
2023/10/21 10:38:26;;;;;;;13.30;7.50;;;;;;;14.26;68.57;99847.93;105911;1256;62805;-55
2023/10/21 10:41:07;;;;;;;14.20;8.90;;;;;;;14.24;68.46;99850.25;105028;1261;60325;-55
2023/10/21 10:43:35;;;;;;;13.50;8.20;;;;;;;14.22;68.46;99863.05;105461;1262;62430;-55
2023/10/21 10:46:04;;;;;;;12.90;8.50;;;;;;;14.15;68.53;99868.82;105323;1256;59692;-55
2023/10/21 10:48:34;;;;;;;12.70;8.10;;;;;;;14.10;68.55;99872.87;106216;1256;59666;-55
2023/10/21 10:51:10;;;;;;;13.60;8.50;;;;;;;14.08;68.51;99878.17;105676;1260;64339;-54
2023/10/21 10:53:39;;;;;;;13.00;8.20;;;;;;;14.06;68.68;99878.27;105397;1260;61986;-53
2023/10/21 10:56:09;;;;;;;13.30;8.80;;;;;;;14.05;68.99;99883.45;104962;1257;63899;-49
2023/10/21 10:58:38;;;;;;;11.60;7.50;;;;;;;14.06;69.45;99884.17;105419;1256;59794;-52
2023/10/21 11:01:07;;;;;;;11.70;7.40;;;;;;;14.08;69.11;99885.58;106135;1260;61077;-53
2023/10/21 11:03:36;;;;;;;17.40;7.10;;;;;;;14.10;68.77;99884.86;105180;1262;64664;-53
2023/10/21 11:06:06;;;;;;;11.30;6.60;;;;;;;14.10;68.55;99885.40;105155;1260;60293;-52
2023/10/21 11:08:34;;;;;;;12.40;7.50;;;;;;;14.08;68.74;99883.00;106160;1257;62450;-53
2023/10/21 11:11:04;;;;;;;15.20;8.50;;;;;;;14.05;68.97;99880.63;104554;1263;59691;-52
2023/10/21 11:13:32;;;;;;;12.70;7.80;;;;;;;14.07;68.99;99885.14;105324;1259;59643;-53
2023/10/21 11:16:00;;;;;;;11.90;6.90;;;;;;;14.12;68.80;99889.44;105323;1257;62886;-52
2023/10/21 11:18:28;;;;;;;10.40;6.60;;;;;;;14.17;68.59;99888.58;105294;1257;60536;-52
2023/10/21 11:20:57;;;;;;;11.40;6.90;;;;;;;14.21;68.44;99893.98;105391;1258;62554;-54
2023/10/21 11:23:26;;;;;;;12.20;6.70;;;;;;;14.23;68.56;99899.05;105588;1257;59775;-53